Time;durP1;ratioP1;P1;durP2;ratioP2;P2;SDS_P1;SDS_P2;PMS_P1;PMS_P2;Temp;Humidity;BMP_temperature;BMP_pressure;BME280_temperature;BME280_humidity;BME280_pressure;Samples;Min_cycle;Max_cycle;Signal;HPM_P1;HPM_P2
2022/04/13 00:00:10;;;;;;;1.15;0.60;;;;;;;20.94;38.72;98953.19;5132395;28;20047;-61
2022/04/13 00:02:36;;;;;;;0.68;0.50;;;;;;;20.93;38.68;98950.75;5132204;28;20055;-60
2022/04/13 00:05:01;;;;;;;0.77;0.45;;;;;;;20.93;38.79;98946.00;5132235;28;20384;-61
2022/04/13 00:07:29;;;;;;;0.95;0.60;;;;;;;20.93;38.73;98945.22;5132127;28;20522;-73
2022/04/13 00:09:55;;;;;;;0.68;0.50;;;;;;;20.94;38.50;98944.84;5132247;28;20049;-73
2022/04/13 00:12:21;;;;;;;1.25;0.50;;;;;;;20.92;38.68;98949.19;5132228;28;20130;-73
2022/04/13 00:14:47;;;;;;;1.00;0.52;;;;;;;20.93;38.58;98951.56;5132062;28;20049;-73
2022/04/13 00:17:12;;;;;;;1.00;0.55;;;;;;;20.94;38.76;98946.81;5131608;28;20522;-73
2022/04/13 00:19:38;;;;;;;0.77;0.43;;;;;;;20.93;38.85;98946.00;5132036;28;20031;-73
2022/04/13 00:22:03;;;;;;;0.95;0.50;;;;;;;20.94;38.83;98933.72;5131599;28;20046;-73
2022/04/13 00:24:29;;;;;;;1.02;0.55;;;;;;;20.92;38.57;98932.50;5131941;28;20035;-73
2022/04/13 00:26:55;;;;;;;0.77;0.47;;;;;;;20.93;38.66;98945.22;5131949;28;20035;-73
2022/04/13 00:29:20;;;;;;;1.05;0.55;;;;;;;20.92;38.60;98936.06;5131500;28;20441;-61
2022/04/13 00:31:46;;;;;;;0.60;0.50;;;;;;;20.91;38.85;98928.91;5131750;28;20047;-60
2022/04/13 00:34:11;;;;;;;1.02;0.52;;;;;;;20.92;38.77;98927.72;5131752;28;20057;-61
2022/04/13 00:36:36;;;;;;;1.27;0.65;;;;;;;20.91;38.55;98928.13;5131796;28;20039;-60
2022/04/13 00:39:02;;;;;;;0.80;0.50;;;;;;;20.90;38.77;98927.31;5130453;27;20039;-60
2022/04/13 00:41:27;;;;;;;1.33;0.60;;;;;;;20.89;38.69;98929.31;5131493;28;20103;-60
2022/04/13 00:44:07;;;;;;;0.90;0.50;;;;;;;20.89;38.98;98929.31;5131488;28;20054;-61
2022/04/13 00:46:33;;;;;;;1.02;0.50;;;;;;;20.90;39.15;98921.78;5131527;28;20040;-61
2022/04/13 00:48:59;;;;;;;1.48;0.63;;;;;;;20.89;38.78;98920.97;5131475;28;20046;-60
2022/04/13 00:51:25;;;;;;;1.52;0.40;;;;;;;20.88;39.14;98927.72;5131646;28;20604;-60
2022/04/13 00:53:51;;;;;;;0.75;0.30;;;;;;;20.89;39.22;98918.19;5131199;28;20050;-73
2022/04/13 00:56:23;;;;;;;0.38;0.38;;;;;;;20.87;39.37;98915.00;5131505;28;20051;-71
2022/04/13 00:58:52;;;;;;;1.25;0.50;;;;;;;20.88;39.20;98916.59;5130875;28;20050;-73
2022/04/13 01:01:17;;;;;;;1.10;0.60;;;;;;;20.87;39.17;98917.78;5131572;28;20515;-72
2022/04/13 01:03:44;;;;;;;0.65;0.40;;;;;;;20.86;39.16;98907.06;5131157;28;20562;-73
2022/04/13 01:06:10;;;;;;;1.30;0.60;;;;;;;20.86;39.44;98913.41;5131101;28;20066;-73
2022/04/13 01:08:38;;;;;;;1.15;0.60;;;;;;;20.86;39.30;98909.84;5130982;28;20039;-73
2022/04/13 01:11:03;;;;;;;1.15;0.63;;;;;;;20.85;39.36;98905.44;5131015;28;20055;-73
2022/04/13 01:13:29;;;;;;;1.25;0.50;;;;;;;20.87;39.20;98903.09;5131323;28;20035;-73
2022/04/13 01:15:54;;;;;;;1.20;0.55;;;;;;;20.87;39.31;98903.09;5130990;28;20181;-73
2022/04/13 01:18:20;;;;;;;0.88;0.50;;;;;;;20.84;39.33;98903.84;5131015;28;20042;-72
2022/04/13 01:20:52;;;;;;;0.60;0.30;;;;;;;20.85;39.32;98905.44;5130864;28;20380;-73
2022/04/13 01:23:19;;;;;;;0.77;0.40;;;;;;;20.85;39.45;98911.81;5127229;28;20584;-73
2022/04/13 01:25:52;;;;;;;1.33;0.55;;;;;;;20.86;39.50;98901.50;5130868;28;20050;-73
2022/04/13 01:28:17;;;;;;;;;;;;;;;20.88;39.57;98905.47;5131436;28;20396;-73
2022/04/13 01:30:43;;;;;;;1.45;0.60;;;;;;;20.86;39.32;98916.19;5130871;28;20392;-73
2022/04/13 01:33:08;;;;;;;1.27;0.60;;;;;;;20.81;39.35;98905.44;5130693;28;20080;-73
2022/04/13 01:35:34;;;;;;;0.70;0.40;;;;;;;20.83;39.38;98910.59;5130878;28;20336;-73
2022/04/13 01:38:00;;;;;;;0.90;0.50;;;;;;;20.84;39.58;98907.44;5130483;28;20051;-72
2022/04/13 01:40:25;;;;;;;0.93;0.50;;;;;;;20.84;39.31;98915.78;5128532;28;20134;-73
2022/04/13 01:42:50;;;;;;;1.00;0.50;;;;;;;20.84;39.58;98914.97;5130450;28;20035;-72
2022/04/13 01:45:19;;;;;;;0.80;0.43;;;;;;;20.84;39.76;98903.84;5130444;28;20046;-71
2022/04/13 01:47:51;;;;;;;0.73;0.32;;;;;;;20.83;39.60;98913.38;5130761;28;20054;-73
2022/04/13 01:50:19;;;;;;;1.00;0.60;;;;;;;20.83;39.63;98910.59;5129447;27;20051;-73
2022/04/13 01:52:49;;;;;;;0.77;0.40;;;;;;;20.84;39.58;98909.41;5130553;28;20293;-73
2022/04/13 01:55:14;;;;;;;1.15;0.40;;;;;;;20.82;39.80;98909.81;5130578;28;20043;-73
2022/04/13 01:57:41;;;;;;;1.00;0.50;;;;;;;20.82;39.55;98912.59;5130429;28;20051;-73
2022/04/13 02:00:12;;;;;;;1.05;0.50;;;;;;;20.82;39.39;98918.16;5130206;28;20035;-73
2022/04/13 02:02:37;;;;;;;0.60;0.43;;;;;;;20.82;39.47;98920.94;5130493;28;20055;-73
2022/04/13 02:05:03;;;;;;;1.67;0.40;;;;;;;20.81;39.72;98916.56;5130307;28;20526;-73
2022/04/13 02:07:29;;;;;;;1.48;0.57;;;;;;;20.81;39.74;98919.34;5130498;28;20526;-73
2022/04/13 02:09:55;;;;;;;0.98;0.50;;;;;;;20.82;40.07;98917.34;5130339;28;20116;-73
2022/04/13 02:12:20;;;;;;;0.80;0.40;;;;;;;20.80;39.83;98914.97;5130330;28;20100;-73
2022/04/13 02:14:46;;;;;;;0.65;0.40;;;;;;;20.80;39.54;98914.97;5130194;28;20586;-73
2022/04/13 02:17:14;;;;;;;0.60;0.40;;;;;;;20.81;39.88;98911.00;5129815;28;20088;-73
2022/04/13 02:19:41;;;;;;;0.75;0.50;;;;;;;20.80;39.61;98912.19;5130040;28;20097;-73
2022/04/13 02:22:08;;;;;;;0.70;0.35;;;;;;;20.80;39.79;98908.59;5129966;28;20687;-72
2022/04/13 02:24:37;;;;;;;0.88;0.40;;;;;;;20.78;39.60;98911.75;5129987;28;20043;-73
2022/04/13 02:27:03;;;;;;;1.05;0.40;;;;;;;20.80;39.91;98930.84;5130221;28;20039;-73
2022/04/13 02:29:28;;;;;;;0.75;0.50;;;;;;;20.78;39.90;98914.53;5130078;28;20396;-73
2022/04/13 02:31:54;;;;;;;0.47;0.40;;;;;;;20.80;40.02;98906.63;5129917;28;20079;-73
2022/04/13 02:34:19;;;;;;;0.80;0.30;;;;;;;20.78;39.73;98906.19;5129998;28;20494;-72
2022/04/13 02:36:44;;;;;;;0.88;0.40;;;;;;;20.78;39.69;98913.75;5130004;28;20440;-73
2022/04/13 02:39:10;;;;;;;0.93;0.45;;;;;;;20.79;39.66;98915.34;5129513;28;20039;-72
2022/04/13 02:41:35;;;;;;;0.98;0.50;;;;;;;20.79;39.73;98915.34;5129900;28;20221;-73
2022/04/13 02:44:01;;;;;;;1.48;0.43;;;;;;;20.79;39.80;98926.47;5129734;28;20130;-73
2022/04/13 02:46:26;;;;;;;0.88;0.50;;;;;;;20.77;39.85;98931.59;5129878;28;20039;-73
2022/04/13 02:48:52;;;;;;;0.75;0.43;;;;;;;20.76;39.77;98925.25;5129980;28;20070;-73
2022/04/13 02:51:17;;;;;;;1.25;0.47;;;;;;;20.75;39.89;98911.75;5129735;28;20035;-73
2022/04/13 02:53:43;;;;;;;0.85;0.50;;;;;;;20.74;39.87;98910.94;5129690;28;20112;-73
2022/04/13 02:56:08;;;;;;;1.00;0.40;;;;;;;20.77;39.91;98926.84;5130020;28;20039;-60
2022/04/13 02:58:34;;;;;;;0.65;0.40;;;;;;;20.75;39.85;98923.66;5129570;28;20051;-60
2022/04/13 03:00:59;;;;;;;1.15;0.60;;;;;;;20.75;39.92;98923.66;5129834;27;20043;-60
2022/04/13 03:03:25;;;;;;;0.95;0.47;;;;;;;20.73;39.80;98914.13;5133275;28;20050;-60
2022/04/13 03:05:51;;;;;;;0.90;0.50;;;;;;;20.74;40.10;98921.28;5132977;28;20043;-60
2022/04/13 03:08:16;;;;;;;0.68;0.40;;;;;;;20.73;39.97;98920.47;5133181;28;20139;-60
2022/04/13 03:10:43;;;;;;;0.68;0.47;;;;;;;20.74;39.94;98922.06;5133159;28;20107;-60
2022/04/13 03:13:10;;;;;;;1.35;0.45;;;;;;;20.75;39.70;98920.06;5133168;28;20043;-61
2022/04/13 03:15:36;;;;;;;0.93;0.50;;;;;;;20.73;40.12;98922.47;5132990;28;20683;-60
2022/04/13 03:18:02;;;;;;;0.40;0.40;;;;;;;20.73;40.10;98928.81;5132827;28;20039;-61
2022/04/13 03:20:27;;;;;;;1.17;0.40;;;;;;;20.73;39.87;98930.78;5132941;28;20068;-60
2022/04/13 03:22:52;;;;;;;0.85;0.50;;;;;;;20.73;39.90;98934.38;5133012;28;20415;-60
2022/04/13 03:25:18;;;;;;;1.00;0.57;;;;;;;20.73;40.12;98937.16;5132624;28;20040;-60
2022/04/13 03:27:44;;;;;;;1.05;0.60;;;;;;;20.72;40.08;98934.75;5132911;28;20035;-60
2022/04/13 03:30:13;;;;;;;0.50;0.40;;;;;;;20.74;39.87;98938.75;5132870;28;20044;-60
2022/04/13 03:32:39;;;;;;;0.57;0.40;;;;;;;20.73;40.04;98937.16;5132919;28;20075;-60
2022/04/13 03:35:08;;;;;;;0.80;0.50;;;;;;;20.72;40.19;98943.09;5132678;28;20059;-61
2022/04/13 03:37:33;;;;;;;0.82;0.50;;;;;;;20.72;40.08;98941.13;5132826;28;20159;-61
2022/04/13 03:39:59;;;;;;;1.15;0.65;;;;;;;20.72;40.04;98941.13;5132462;28;20042;-60
2022/04/13 03:42:24;;;;;;;1.35;0.60;;;;;;;20.69;39.79;98941.06;5132535;28;20451;-60
2022/04/13 03:44:50;;;;;;;0.98;0.55;;;;;;;20.72;40.12;98943.91;5132348;28;20396;-61
2022/04/13 03:47:15;;;;;;;0.98;0.50;;;;;;;20.72;40.10;98952.22;5132741;28;20161;-61
2022/04/13 03:49:41;;;;;;;1.02;0.50;;;;;;;20.71;39.96;98953.38;5132723;28;20047;-61
2022/04/13 03:52:06;;;;;;;2.08;0.60;;;;;;;20.69;39.91;98955.75;5132549;28;20046;-61
2022/04/13 03:54:32;;;;;;;1.73;0.60;;;;;;;20.72;40.03;98954.22;5132587;28;20035;-60
2022/04/13 03:56:57;;;;;;;1.05;0.50;;;;;;;20.71;39.95;98958.94;5132452;28;20442;-60
2022/04/13 03:59:23;;;;;;;0.73;0.40;;;;;;;20.71;40.14;98955.38;5132181;28;20054;-60
2022/04/13 04:01:49;;;;;;;0.70;0.43;;;;;;;20.69;40.01;98964.09;5132423;28;20138;-73
2022/04/13 04:04:14;;;;;;;0.88;0.50;;;;;;;20.71;40.00;98972.84;5132062;28;20047;-60
2022/04/13 04:06:39;;;;;;;0.73;0.47;;;;;;;20.72;40.00;98965.34;5132096;28;20047;-60
2022/04/13 04:09:05;;;;;;;0.93;0.60;;;;;;;20.70;40.00;98968.47;5132056;28;20035;-60
2022/04/13 04:11:30;;;;;;;1.05;0.60;;;;;;;20.71;39.96;98966.50;5132100;28;20045;-61
2022/04/13 04:13:56;;;;;;;0.95;0.47;;;;;;;20.70;39.96;98973.22;5130908;27;20043;-61
2022/04/13 04:16:22;;;;;;;1.05;0.57;;;;;;;20.70;40.32;98971.25;5132002;28;20071;-60
2022/04/13 04:18:48;;;;;;;1.17;0.70;;;;;;;20.70;40.15;98976.81;5131999;28;20339;-60
2022/04/13 04:21:16;;;;;;;0.57;0.40;;;;;;;20.70;39.97;98976.81;5131641;28;20082;-61
2022/04/13 04:23:42;;;;;;;0.43;0.40;;;;;;;20.70;39.96;98981.56;5131809;28;20070;-60
2022/04/13 04:26:09;;;;;;;0.57;0.40;;;;;;;20.69;40.23;98978.00;5131838;28;20381;-61
2022/04/13 04:28:34;;;;;;;0.70;0.47;;;;;;;20.66;40.41;98977.97;5131798;28;20503;-60
2022/04/13 04:31:01;;;;;;;0.70;0.40;;;;;;;20.69;40.18;98980.78;5131551;28;20047;-61
2022/04/13 04:33:26;;;;;;;0.63;0.40;;;;;;;20.68;40.15;98978.38;5131772;28;20047;-60
2022/04/13 04:35:52;;;;;;;0.50;0.35;;;;;;;20.69;40.16;98985.53;5131644;28;20049;-61
2022/04/13 04:38:18;;;;;;;1.02;0.47;;;;;;;20.67;40.16;98980.38;5131555;28;20506;-60
2022/04/13 04:40:43;;;;;;;0.60;0.40;;;;;;;20.67;40.25;98982.34;5131306;28;20446;-60
2022/04/13 04:43:09;;;;;;;0.90;0.47;;;;;;;20.66;40.12;98995.44;5131406;28;20039;-60
2022/04/13 04:45:36;;;;;;;1.02;0.52;;;;;;;20.66;40.28;99003.78;5131322;28;20047;-60
2022/04/13 04:48:04;;;;;;;0.98;0.47;;;;;;;20.66;40.17;99003.78;5131440;28;20047;-61
2022/04/13 04:50:31;;;;;;;0.63;0.50;;;;;;;20.66;40.46;99003.00;5131539;28;20043;-60
2022/04/13 04:52:57;;;;;;;0.85;0.45;;;;;;;20.66;40.14;99003.78;5131476;28;20043;-60
2022/04/13 04:55:22;;;;;;;0.80;0.40;;;;;;;20.66;40.29;99009.34;5131702;28;20436;-61
2022/04/13 04:57:48;;;;;;;0.75;0.55;;;;;;;20.68;40.32;99012.53;5131363;28;20085;-61
2022/04/13 05:00:19;;;;;;;1.33;0.60;;;;;;;20.66;40.24;99008.53;5131044;28;20070;-60
2022/04/13 05:02:48;;;;;;;0.77;0.45;;;;;;;20.66;40.18;99014.91;5131231;28;20129;-60
2022/04/13 05:05:14;;;;;;;0.98;0.50;;;;;;;20.66;40.30;99014.91;5131019;28;20047;-60
2022/04/13 05:07:40;;;;;;;1.08;0.60;;;;;;;20.67;40.23;99010.94;5131200;28;20040;-60
2022/04/13 05:10:07;;;;;;;1.23;0.43;;;;;;;20.67;40.55;99016.50;5131222;28;20668;-62
2022/04/13 05:12:56;;;;;;;0.73;0.50;;;;;;;20.66;40.30;99011.31;5131126;28;20072;-61
2022/04/13 05:15:22;;;;;;;1.38;0.50;;;;;;;20.68;40.46;99011.72;5130070;28;20085;-61
2022/04/13 05:17:47;;;;;;;0.65;0.47;;;;;;;20.68;40.44;99006.19;5131047;28;20074;-61
2022/04/13 05:20:13;;;;;;;0.93;0.50;;;;;;;20.66;40.66;99014.09;5131330;28;20555;-60
2022/04/13 05:22:38;;;;;;;0.70;0.50;;;;;;;20.66;40.30;99014.91;5130782;28;20039;-60
2022/04/13 05:25:09;;;;;;;0.90;0.50;;;;;;;20.67;40.53;99012.91;5130467;27;20058;-72
2022/04/13 05:27:35;;;;;;;0.77;0.45;;;;;;;20.66;40.46;99006.56;5130540;28;20533;-67
2022/04/13 05:30:01;;;;;;;1.77;0.60;;;;;;;20.71;40.62;99016.50;5130916;28;20134;-70
2022/04/13 05:32:27;;;;;;;1.30;0.63;;;;;;;20.71;40.60;99022.06;5130807;28;20031;-70
2022/04/13 05:35:02;;;;;;;1.52;0.40;;;;;;;20.69;40.81;99008.56;5130845;28;20039;-61
2022/04/13 05:37:28;;;;;;;1.08;0.50;;;;;;;20.69;40.57;99016.09;5130815;28;20125;-61
2022/04/13 05:39:54;;;;;;;0.73;0.50;;;;;;;20.68;40.75;99020.88;5130522;28;20046;-61
2022/04/13 05:42:23;;;;;;;1.23;0.50;;;;;;;20.67;40.94;99016.50;5130566;28;20058;-61
2022/04/13 05:44:50;;;;;;;1.27;0.40;;;;;;;20.67;40.76;99016.50;5130640;28;20035;-61
2022/04/13 05:47:15;;;;;;;1.85;0.52;;;;;;;20.64;40.83;99020.03;5130624;28;20039;-60
2022/04/13 05:49:41;;;;;;;0.60;0.30;;;;;;;20.67;40.68;99024.84;5130668;28;20051;-60
2022/04/13 05:52:06;;;;;;;0.95;0.50;;;;;;;20.67;40.75;99030.38;5130629;28;20107;-61
2022/04/13 05:54:32;;;;;;;1.27;0.52;;;;;;;20.67;40.82;99022.06;5126521;28;20039;-61
2022/04/13 05:56:57;;;;;;;0.70;0.40;;;;;;;20.67;40.55;99022.06;5130557;28;20042;-60
2022/04/13 05:59:22;;;;;;;0.60;0.43;;;;;;;20.67;40.78;99035.16;5130393;28;20078;-61
2022/04/13 06:01:48;;;;;;;0.57;0.40;;;;;;;20.68;40.88;99040.31;5130298;28;20105;-61
2022/04/13 06:04:13;;;;;;;0.73;0.43;;;;;;;20.68;40.78;99040.31;5130415;28;20391;-60
2022/04/13 06:06:39;;;;;;;0.75;0.50;;;;;;;20.68;40.72;99040.31;5130143;28;20046;-61
2022/04/13 06:09:05;;;;;;;0.82;0.50;;;;;;;20.68;40.99;99043.09;5130284;28;20467;-61
2022/04/13 06:11:30;;;;;;;1.52;0.60;;;;;;;20.68;40.83;99051.44;5130082;28;20133;-61
2022/04/13 06:13:56;;;;;;;1.20;0.50;;;;;;;20.70;40.77;99051.06;5130340;28;20131;-60
2022/04/13 06:16:21;;;;;;;1.02;0.50;;;;;;;20.68;40.94;99057.00;5130214;28;20084;-61
2022/04/13 06:18:46;;;;;;;0.70;0.40;;;;;;;20.69;41.02;99069.72;5129929;28;20039;-60
2022/04/13 06:21:12;;;;;;;0.90;0.60;;;;;;;20.69;40.99;99068.91;5129990;28;20466;-60
2022/04/13 06:23:37;;;;;;;4.78;0.73;;;;;;;20.70;40.92;99070.50;5130070;28;20112;-61
2022/04/13 06:26:03;;;;;;;1.20;0.50;;;;;;;20.69;40.72;99069.72;5130080;28;20039;-61
2022/04/13 06:28:28;;;;;;;0.70;0.40;;;;;;;20.69;40.88;99072.47;5130013;28;20076;-61
2022/04/13 06:30:53;;;;;;;0.88;0.43;;;;;;;20.71;41.34;99072.09;5130138;28;20092;-61
2022/04/13 06:33:19;;;;;;;0.88;0.40;;;;;;;20.71;41.09;99074.88;5130091;28;20082;-61
2022/04/13 06:35:45;;;;;;;1.08;0.60;;;;;;;20.72;41.08;99087.63;5130048;27;20100;-60
2022/04/13 06:38:10;;;;;;;0.95;0.52;;;;;;;20.72;40.95;99080.06;5133712;28;20039;-61
2022/04/13 06:40:36;;;;;;;1.05;0.40;;;;;;;20.72;41.10;99080.06;5133495;28;20471;-60
2022/04/13 06:43:01;;;;;;;3.08;0.70;;;;;;;20.70;41.05;99082.41;5133425;28;20043;-60
2022/04/13 06:45:27;;;;;;;1.23;0.60;;;;;;;20.76;41.00;99092.00;5131856;28;20061;-60
2022/04/13 06:47:53;;;;;;;1.77;0.85;;;;;;;20.77;40.81;99088.03;5131201;27;20043;-60
2022/04/13 06:50:18;;;;;;;1.67;0.47;;;;;;;20.80;41.00;99087.28;5121256;27;20134;-60
2022/04/13 06:52:44;;;;;;;1.67;0.50;;;;;;;20.81;40.92;99088.09;5117258;28;20418;-60
2022/04/13 06:55:10;;;;;;;1.30;0.60;;;;;;;20.82;40.75;99089.69;5132855;28;20360;-59
2022/04/13 06:57:38;;;;;;;0.60;0.40;;;;;;;20.82;40.74;99089.69;5132167;28;20058;-59
2022/04/13 07:00:08;;;;;;;1.58;0.60;;;;;;;20.85;40.77;99091.69;5129988;28;20050;-59
2022/04/13 07:02:35;;;;;;;0.77;0.40;;;;;;;20.86;40.76;99088.56;5126904;28;20043;-60
2022/04/13 07:05:01;;;;;;;1.70;0.70;;;;;;;20.91;40.69;99092.16;5132648;28;20047;-60
2022/04/13 07:07:26;;;;;;;1.42;0.60;;;;;;;20.92;40.60;99094.53;5133087;28;20043;-59
2022/04/13 07:09:52;;;;;;;0.82;0.47;;;;;;;20.96;40.43;99089.03;5132658;28;20047;-59
2022/04/13 07:12:17;;;;;;;1.13;0.70;;;;;;;20.99;40.57;99088.25;5131590;28;20035;-58
2022/04/13 07:14:43;;;;;;;1.20;0.60;;;;;;;21.03;40.36;99089.09;5132176;28;20483;-58
2022/04/13 07:17:11;;;;;;;0.55;0.35;;;;;;;21.07;40.04;99092.69;5132591;28;20450;-59
2022/04/13 07:19:37;;;;;;;1.23;0.60;;;;;;;21.13;40.14;99093.94;5130407;28;20035;-60
2022/04/13 07:22:03;;;;;;;1.65;0.70;;;;;;;21.21;40.09;99087.22;5129736;28;20051;-59
2022/04/13 07:24:28;;;;;;;0.80;0.50;;;;;;;21.24;40.06;99082.91;5122301;27;20159;-66
2022/04/13 07:26:54;;;;;;;1.40;0.60;;;;;;;21.26;39.94;99080.53;5129152;28;20122;-65
2022/04/13 07:29:20;;;;;;;1.15;0.50;;;;;;;21.27;39.96;99088.47;5111921;28;20127;-64
2022/04/13 07:31:45;;;;;;;1.38;0.65;;;;;;;21.31;39.76;99077.41;5127276;28;20042;-61
2022/04/13 07:34:11;;;;;;;1.15;0.55;;;;;;;21.31;39.76;99083.78;5126070;28;20147;-66
2022/04/13 07:36:36;;;;;;;1.15;0.68;;;;;;;21.31;39.90;99081.00;5119232;28;20407;-64
2022/04/13 07:39:02;;;;;;;1.30;0.60;;;;;;;21.32;39.54;99079.00;5120186;28;20364;-65
2022/04/13 07:41:30;;;;;;;1.27;0.57;;;;;;;21.33;39.90;99089.75;5122659;27;20517;-61
2022/04/13 07:43:57;;;;;;;1.50;0.70;;;;;;;21.34;39.69;99082.19;5128828;28;20087;-65
2022/04/13 07:46:27;;;;;;;1.17;0.40;;;;;;;21.37;39.69;99087.00;5124552;28;20047;-59
2022/04/13 07:48:54;;;;;;;0.98;0.57;;;;;;;21.42;39.96;99084.66;5115327;27;20044;-59
2022/04/13 07:51:19;;;;;;;1.80;0.70;;;;;;;21.44;39.54;99081.50;5122141;28;20048;-59
2022/04/13 07:53:45;;;;;;;1.25;0.70;;;;;;;21.46;39.78;99083.88;5122171;28;20091;-59
2022/04/13 07:56:10;;;;;;;1.05;0.55;;;;;;;21.46;39.61;99079.13;5116314;28;20043;-61
2022/04/13 07:58:35;;;;;;;1.58;0.60;;;;;;;21.50;39.63;99087.47;5126208;28;20051;-60
2022/04/13 08:01:01;;;;;;;1.45;0.52;;;;;;;21.51;39.87;99083.53;5126379;28;20035;-60
2022/04/13 08:03:26;;;;;;;4.30;0.68;;;;;;;21.57;39.92;99081.97;5127724;27;20440;-62
2022/04/13 08:05:52;;;;;;;3.90;0.77;;;;;;;21.56;40.01;99085.94;5118239;28;20043;-62
2022/04/13 08:08:17;;;;;;;1.58;0.70;;;;;;;21.55;39.92;99087.13;5123267;28;20066;-61
2022/04/13 08:10:43;;;;;;;1.48;0.60;;;;;;;21.56;39.98;99095.06;5126582;27;20032;-61
2022/04/13 08:13:08;;;;;;;1.75;0.65;;;;;;;21.60;39.87;99098.69;5122720;27;20046;-62
2022/04/13 08:15:34;;;;;;;1.50;0.70;;;;;;;21.61;39.44;99091.94;5121164;28;20042;-62
2022/04/13 08:17:59;;;;;;;1.80;0.75;;;;;;;21.63;39.62;99099.88;5119907;27;20173;-61
2022/04/13 08:20:25;;;;;;;1.30;0.60;;;;;;;21.63;39.69;99097.09;5126306;27;20504;-60
2022/04/13 08:22:50;;;;;;;1.33;0.60;;;;;;;21.66;39.29;99105.50;5110648;28;20054;-60
2022/04/13 08:25:15;;;;;;;1.98;0.70;;;;;;;21.67;39.44;99104.31;5128468;28;20422;-60
2022/04/13 08:27:41;;;;;;;4.93;0.77;;;;;;;21.70;39.65;99099.94;5130129;28;20414;-60
2022/04/13 08:30:07;;;;;;;1.77;0.80;;;;;;;21.70;39.51;99105.50;5130308;28;20040;-59
2022/04/13 08:32:32;;;;;;;1.05;0.65;;;;;;;21.71;39.21;99107.09;5129321;28;20119;-60
2022/04/13 08:34:58;;;;;;;2.15;0.60;;;;;;;21.69;39.25;99109.47;5128431;28;20043;-60
2022/04/13 08:37:25;;;;;;;2.28;0.80;;;;;;;21.73;39.43;99117.88;5129621;28;20046;-60
2022/04/13 08:39:50;;;;;;;5.57;0.52;;;;;;;21.72;39.52;99119.84;5127525;27;20498;-61
2022/04/13 08:42:38;;;;;;;1.60;0.68;;;;;;;21.72;39.38;99114.28;5131747;27;20082;-60
2022/04/13 08:45:11;;;;;;;1.45;0.60;;;;;;;21.74;39.72;99123.03;5130350;27;20043;-60
2022/04/13 08:47:42;;;;;;;1.33;0.80;;;;;;;21.77;39.66;99124.25;5127892;27;20043;-59
2022/04/13 08:50:10;;;;;;;1.00;0.60;;;;;;;21.82;39.44;99118.31;5123243;27;20058;-62
2022/04/13 08:52:38;;;;;;;1.40;0.65;;;;;;;21.82;39.31;99112.75;5127602;27;20101;-61
2022/04/13 08:55:14;;;;;;;1.25;0.70;;;;;;;21.82;39.58;99112.75;5122617;28;20087;-59
2022/04/13 08:57:53;;;;;;;1.90;0.70;;;;;;;21.82;39.70;99109.97;5121474;28;20506;-61
2022/04/13 09:00:21;;;;;;;1.38;0.60;;;;;;;21.83;39.48;99106.78;5123319;27;20070;-62
2022/04/13 09:03:04;;;;;;;1.08;0.60;;;;;;;21.84;39.44;99105.59;5126946;28;20031;-64
2022/04/13 09:05:32;;;;;;;2.25;0.80;;;;;;;21.85;39.41;99109.97;5125425;28;20044;-64
2022/04/13 09:08:08;;;;;;;1.23;0.63;;;;;;;21.82;39.37;99105.19;5123310;28;20062;-62
2022/04/13 09:10:35;;;;;;;2.08;0.60;;;;;;;21.87;39.63;99110.41;5120603;28;20039;-66
2022/04/13 09:13:01;;;;;;;1.13;0.60;;;;;;;21.87;39.51;99101.25;5128430;28;20031;-62
2022/04/13 09:15:27;;;;;;;1.67;0.75;;;;;;;21.91;39.50;99110.41;5122334;28;20035;-66
2022/04/13 09:17:53;;;;;;;2.38;1.23;;;;;;;21.92;39.18;99098.06;5128169;28;20077;-64
2022/04/13 09:20:19;;;;;;;3.30;1.48;;;;;;;21.93;39.35;99108.84;5121086;28;20035;-63
2022/04/13 09:22:46;;;;;;;2.65;1.30;;;;;;;21.92;39.48;99092.50;5130424;28;20047;-62
2022/04/13 09:25:11;;;;;;;2.60;1.13;;;;;;;21.93;39.52;99092.13;5124526;28;20047;-65
2022/04/13 09:27:38;;;;;;;2.88;1.10;;;;;;;21.94;39.06;99087.38;5109199;28;20042;-63
2022/04/13 09:30:06;;;;;;;2.38;1.15;;;;;;;21.91;39.03;99083.34;5124367;28;20047;-65
2022/04/13 09:32:31;;;;;;;2.28;0.90;;;;;;;21.98;38.93;99080.59;5128266;28;20117;-66
2022/04/13 09:34:58;;;;;;;1.70;1.00;;;;;;;22.02;38.96;99077.84;5125738;28;20129;-61
2022/04/13 09:37:24;;;;;;;2.08;1.00;;;;;;;22.02;38.52;99077.06;5122724;28;20067;-66
2022/04/13 09:39:50;;;;;;;3.58;0.90;;;;;;;21.99;38.47;99071.06;5122785;27;20467;-61
2022/04/13 09:42:15;;;;;;;2.58;1.05;;;;;;;22.01;38.42;99078.25;5118259;28;20043;-61
2022/04/13 09:44:41;;;;;;;3.28;1.15;;;;;;;21.99;38.22;99076.63;5120213;28;20045;-63
2022/04/13 09:47:08;;;;;;;2.20;0.90;;;;;;;21.96;38.02;99073.84;5123760;28;20104;-61
2022/04/13 09:49:34;;;;;;;2.58;0.90;;;;;;;21.98;38.16;99072.25;5124232;28;20046;-64
2022/04/13 09:52:00;;;;;;;2.03;0.70;;;;;;;21.95;38.06;99067.47;5120855;28;20036;-60
2022/04/13 09:54:27;;;;;;;1.48;0.77;;;;;;;21.94;37.82;99065.88;5120793;28;20054;-65
2022/04/13 09:56:52;;;;;;;2.33;1.00;;;;;;;21.94;37.85;99068.66;5126075;28;20035;-65
2022/04/13 09:59:29;;;;;;;3.33;0.77;;;;;;;21.95;37.70;99067.47;5122217;28;20058;-65
2022/04/13 10:01:55;;;;;;;1.60;0.88;;;;;;;21.96;37.48;99062.69;5123269;28;20035;-64
2022/04/13 10:04:31;;;;;;;3.67;0.98;;;;;;;21.94;37.46;99065.88;5128237;28;20126;-65
2022/04/13 10:07:17;;;;;;;1.52;0.70;;;;;;;21.93;37.46;99055.94;5121670;28;20066;-65
2022/04/13 10:09:43;;;;;;;2.10;0.85;;;;;;;21.92;37.76;99056.31;5126512;28;20043;-67
2022/04/13 10:12:09;;;;;;;1.40;0.60;;;;;;;21.91;37.49;99049.13;5121887;27;20043;-66
2022/04/13 10:14:34;;;;;;;1.48;0.70;;;;;;;21.93;37.41;99052.31;5122795;28;20066;-64
2022/04/13 10:17:15;;;;;;;1.35;0.60;;;;;;;21.93;37.20;99043.97;5112981;28;20055;-64
2022/04/13 10:19:51;;;;;;;1.33;0.70;;;;;;;21.92;37.50;99034.81;5113000;28;20044;-65
2022/04/13 10:22:16;;;;;;;1.60;0.65;;;;;;;21.91;37.28;99030.44;5119094;28;20043;-65
2022/04/13 10:24:43;;;;;;;1.75;0.70;;;;;;;21.90;36.94;99023.28;5126611;28;20043;-65
2022/04/13 10:27:08;;;;;;;1.20;0.52;;;;;;;21.89;37.07;99013.34;5133961;28;20137;-65
2022/04/13 10:29:39;;;;;;;1.92;0.70;;;;;;;21.87;36.97;99010.16;5133840;28;20560;-65
2022/04/13 10:32:18;;;;;;;1.23;0.60;;;;;;;21.88;37.11;99011.75;5132453;28;20047;-65
2022/04/13 10:34:49;;;;;;;1.70;0.60;;;;;;;21.89;36.89;99001.41;5133179;28;20054;-65
2022/04/13 10:37:17;;;;;;;2.00;0.60;;;;;;;21.86;36.92;99000.22;5133266;28;20050;-65
2022/04/13 10:39:45;;;;;;;1.40;0.68;;;;;;;21.86;36.74;99003.00;5132986;28;20473;-65
2022/04/13 10:42:11;;;;;;;1.30;0.55;;;;;;;21.87;36.51;98999.03;5132815;28;20047;-65
2022/04/13 10:44:41;;;;;;;2.05;0.50;;;;;;;21.86;36.74;98993.81;5132540;28;20122;-65
2022/04/13 10:47:09;;;;;;;2.35;0.70;;;;;;;21.87;36.50;98992.66;5132738;28;20050;-59
2022/04/13 10:49:47;;;;;;;1.52;0.40;;;;;;;21.87;36.44;98982.31;5133245;28;20047;-59
2022/04/13 10:52:33;;;;;;;1.40;0.63;;;;;;;21.88;36.57;98994.25;5132240;28;20096;-59
2022/04/13 10:55:10;;;;;;;1.05;0.40;;;;;;;21.87;36.68;98987.88;5132987;28;20130;-59
2022/04/13 10:57:56;;;;;;;1.40;0.60;;;;;;;21.85;36.49;98978.31;5133235;28;20050;-59
2022/04/13 11:00:24;;;;;;;1.08;0.60;;;;;;;21.84;36.49;98977.50;5132890;28;20109;-60
2022/04/13 11:02:54;;;;;;;1.10;0.55;;;;;;;21.86;36.38;98980.72;5114087;28;20063;-59
2022/04/13 11:05:22;;;;;;;1.73;0.40;;;;;;;21.87;36.41;98979.53;5131677;28;20031;-59
2022/04/13 11:07:53;;;;;;;0.95;0.50;;;;;;;21.85;36.82;98970.75;5132711;28;20410;-59
2022/04/13 11:10:20;;;;;;;0.50;0.40;;;;;;;21.87;36.40;98967.59;5132861;28;20047;-60
2022/04/13 11:12:47;;;;;;;1.08;0.52;;;;;;;21.87;36.71;98962.03;5130885;28;20503;-59
2022/04/13 11:15:12;;;;;;;1.73;0.55;;;;;;;21.86;36.63;98952.06;5132512;28;20077;-59
2022/04/13 11:17:42;;;;;;;0.47;0.30;;;;;;;21.87;36.62;98957.25;5131978;28;20119;-59
2022/04/13 11:20:22;;;;;;;0.88;0.43;;;;;;;21.88;36.37;98958.84;5131119;28;20156;-59
2022/04/13 11:23:13;;;;;;;0.65;0.32;;;;;;;21.87;36.49;98946.13;5131648;27;20050;-59
2022/04/13 11:25:58;;;;;;;1.23;0.50;;;;;;;21.88;36.47;98944.13;5132307;28;20046;-59
2022/04/13 11:28:34;;;;;;;0.82;0.45;;;;;;;21.86;36.58;98943.69;5112002;28;20054;-59
2022/04/13 11:31:12;;;;;;;1.58;0.70;;;;;;;21.87;36.61;98946.13;5118719;28;20062;-60
2022/04/13 11:33:51;;;;;;;0.80;0.50;;;;;;;21.88;36.47;98944.94;5131397;28;20406;-59